Bretagne — FNBR — position and weather

sailwx.info

Track history (hours):
 
Tides and Currents Weather Stations Pressure Air Temp Water Temp Dewpoint Dewpoint Depression Visibility Wind Speed Wind Dir Waves Ship Positions

Bretagne

Operator: Brittany Ferries

Last reported at 2018-Apr-26 18:33 UTC. Time now 2018-Apr-26 19:14 UTC.
Position N 48°40' W 002°05'.

Length 151 m; beam 27 m.

Type: Ship. MMSI: 227286000.

Date/timePositionNaut miles runAvg speedWind from/ knotsBaromVisibWave heightAir tempDewpointWater temp
2018-Apr-26 18:33N 48°40' W 002°05'3 0.9
2018-Apr-26 15:21N 48°38' W 002°02'32 2.8
2018-Apr-26 03:40N 49°08' W 002°22'415.3
2018-Apr-26 03:26N 49°11' W 002°21'615.0
2018-Apr-26 03:01N 49°18' W 002°20'713.7
2018-Apr-26 02:31N 49°24' W 002°17'713.7
2018-Apr-26 01:59N 49°30' W 002°11'510.8
2018-Apr-26 01:30N 49°35' W 002°08'6214.7
2018-Apr-25 21:17N 50°28' W 001°17'516.3
2018-Apr-25 21:01N 50°32' W 001°13'816.4
2018-Apr-25 20:30N 50°38' W 001°06'611.9
2018-Apr-25 20:00N 50°44' W 001°04'4 9.0
2018-Apr-25 19:31N 50°49' W 001°06'0 0.5
2018-Apr-25 18:58N 50°49' W 001°06'0 0.0
2018-Apr-25 18:28N 50°49' W 001°06'0 0.0
2018-Apr-25 17:58N 50°49' W 001°06'0 0.0
2018-Apr-25 17:28N 50°49' W 001°06'0 0.0
2018-Apr-25 16:58N 50°49' W 001°06'0 0.0
2018-Apr-25 16:28N 50°49' W 001°06'0 0.0
2018-Apr-25 15:58N 50°49' W 001°06'0 0.0
2018-Apr-25 15:29N 50°49' W 001°06'0 0.0
2018-Apr-25 15:00N 50°49' W 001°06'0 0.0
2018-Apr-25 14:28N 50°49' W 001°06'0 0.0
2018-Apr-25 13:58N 50°49' W 001°06'0 0.0
2018-Apr-25 13:28N 50°49' W 001°06'0 0.0
2018-Apr-25 12:58N 50°49' W 001°06'0 0.0
2018-Apr-25 12:28N 50°49' W 001°06'0 0.0
2018-Apr-25 11:58N 50°49' W 001°06'0 0.0
2018-Apr-25 11:28N 50°49' W 001°06'0 0.0
2018-Apr-25 10:58N 50°49' W 001°06'0 0.0
2018-Apr-25 10:28N 50°49' W 001°06'0 0.0
2018-Apr-25 09:58N 50°49' W 001°06'0 0.0
2018-Apr-25 09:28N 50°49' W 001°06'0 0.0
2018-Apr-25 08:58N 50°49' W 001°06'0 0.0
2018-Apr-25 08:28N 50°49' W 001°06'0 0.0
2018-Apr-25 07:58N 50°49' W 001°06'0 0.0
2018-Apr-25 07:28N 50°49' W 001°06'0 0.0
2018-Apr-25 06:59N 50°49' W 001°06'1 1.5
2018-Apr-25 06:30N 50°49' W 001°07'510.8
2018-Apr-25 06:00N 50°44' W 001°03'612.8
2018-Apr-25 05:30N 50°38' W 001°07'714.0
2018-Apr-25 05:00N 50°32' W 001°13'713.3
2018-Apr-25 04:28N 50°26' W 001°20'5612.7
2018-Apr-25 00:06N 49°39' W 002°05'112.4
2018-Apr-25 00:00N 49°38' W 002°06'611.5
2018-Apr-24 23:30N 49°32' W 002°10'611.2
2018-Apr-24 23:00N 49°27' W 002°12'611.0
2018-Apr-24 22:30N 49°22' W 002°17'611.0
2018-Apr-24 21:57N 49°17' W 002°21'2511.5
2018-Apr-24 19:47N 48°52' W 002°21'18 1.6
2018-Apr-24 08:00N 48°38' W 002°02'0 0.0
2018-Apr-24 06:48N 48°38' W 002°02'0 0.0
2018-Apr-24 06:18N 48°38' W 002°02'0 1.2
2018-Apr-24 05:57N 48°39' W 002°02'813.9
2018-Apr-24 05:21N 48°46' W 002°09'514.2
2018-Apr-24 04:59N 48°50' W 002°15'714.1
2018-Apr-24 04:30N 48°55' W 002°21'1014.7
2018-Apr-24 03:48N 49°05' W 002°23'514.7
2018-Apr-24 03:30N 49°09' W 002°23'714.5
2018-Apr-24 03:00N 49°17' W 002°23'714.7
2018-Apr-24 02:30N 49°23' W 002°17'714.5
2018-Apr-24 02:00N 49°30' W 002°12'814.3
2018-Apr-24 01:27N 49°37' W 002°07'812.7
2018-Apr-24 00:47N 49°45' W 002°02'412.9
2018-Apr-24 00:30N 49°48' W 001°60'714.4
2018-Apr-24 00:01N 49°54' W 001°54'815.4
2018-Apr-23 23:31N 50°01' W 001°48'714.0
2018-Apr-23 23:00N 50°06' W 001°42'714.0
2018-Apr-23 22:30N 50°12' W 001°35'714.7
2018-Apr-23 22:00N 50°18' W 001°29'815.4
2018-Apr-23 21:31N 50°24' W 001°22'815.6
2018-Apr-23 21:00N 50°31' W 001°15'816.2
2018-Apr-23 20:31N 50°37' W 001°07'713.6
2018-Apr-23 20:00N 50°43' W 001°03'511.0
2018-Apr-23 19:30N 50°48' W 001°07'1 1.6
2018-Apr-23 18:58N 50°49' W 001°06'0 0.0
2018-Apr-23 18:26N 50°49' W 001°06'0 0.0
2018-Apr-23 17:58N 50°49' W 001°06'0 0.0
2018-Apr-23 17:28N 50°49' W 001°06'0 0.9
2018-Apr-23 17:00N 50°49' W 001°06'510.3
2018-Apr-23 16:30N 50°44' W 001°04'713.4
2018-Apr-23 16:01N 50°37' W 001°07'816.5
2018-Apr-23 15:30N 50°31' W 001°14'713.1
2018-Apr-23 15:00N 50°25' W 001°20'713.2
2018-Apr-23 14:30N 50°20' W 001°26'815.0
2018-Apr-23 14:01N 50°14' W 001°32'816.8
2018-Apr-23 13:30N 50°07' W 001°40'918.4
2018-Apr-23 13:00N 49°60' W 001°49'918.8
2018-Apr-23 12:30N 49°51' W 001°56'1219.8
2018-Apr-23 11:55N 49°40' W 002°01'920.3
2018-Apr-23 11:28N 49°31' W 001°59'919.8
2018-Apr-23 11:00N 49°22' W 001°56'1618.2
2018-Apr-23 10:09N 49°07' W 001°52'2818.3
2018-Apr-23 08:37N 48°40' W 002°05'0 0.0
2018-Apr-23 04:30N 48°40' W 002°05'713.9
2018-Apr-23 03:58N 48°47' W 002°10'1213.5
2018-Apr-23 03:04N 48°56' W 002°21'815.4
2018-Apr-23 02:35N 49°04' W 002°23'215.8
2018-Apr-23 02:27N 49°06' W 002°23'915.8
2018-Apr-23 01:53N 49°15' W 002°23'615.8
2018-Apr-23 01:29N 49°21' W 002°20'816.7
2018-Apr-23 01:00N 49°28' W 002°14'916.9
2018-Apr-23 00:29N 49°36' W 002°09'915.1
2018-Apr-22 23:54N 49°44' W 002°03'615.1
2018-Apr-22 23:30N 49°49' W 001°59'816.8
2018-Apr-22 23:01N 49°56' W 001°52'917.7
2018-Apr-22 22:30N 50°03' W 001°44'917.9
2018-Apr-22 22:01N 50°10' W 001°34'1018.0
2018-Apr-22 21:26N 50°18' W 001°23'818.7
2018-Apr-22 21:00N 50°25' W 001°19'919.0
2018-Apr-22 20:30N 50°33' W 001°11'918.4
2018-Apr-22 20:00N 50°41' W 001°03'713.7
2018-Apr-22 19:30N 50°47' W 001°06'2 3.0
2018-Apr-22 18:57N 50°49' W 001°06'0 0.0
2018-Apr-22 18:27N 50°49' W 001°06'0 0.0
2018-Apr-22 17:57N 50°49' W 001°06'0 0.0
2018-Apr-22 17:27N 50°49' W 001°06'1 1.5
2018-Apr-22 17:00N 50°49' W 001°07'510.6
2018-Apr-22 16:30N 50°44' W 001°03'713.2
2018-Apr-22 16:00N 50°37' W 001°07'714.4
2018-Apr-22 15:30N 50°31' W 001°13'815.9
2018-Apr-22 15:00N 50°25' W 001°20'816.4
2018-Apr-22 14:30N 50°18' W 001°28'816.8
2018-Apr-22 14:00N 50°11' W 001°35'917.1
2018-Apr-22 13:30N 50°04' W 001°42'918.3
2018-Apr-22 13:00N 49°56' W 001°49'1020.4
2018-Apr-22 12:30N 49°48' W 001°58'1020.6
2018-Apr-22 12:00N 49°38' W 002°01'1019.7
2018-Apr-22 11:30N 49°28' W 001°58'5017.3
2018-Apr-22 08:38N 48°38' W 002°02'35 7.0
2018-Apr-22 03:37N 49°11' W 002°23'215.2
2018-Apr-22 03:29N 49°13' W 002°23'815.4
2018-Apr-22 03:00N 49°20' W 002°20'815.6
2018-Apr-22 02:30N 49°27' W 002°15'815.0
2018-Apr-22 02:00N 49°34' W 002°10'815.2
2018-Apr-22 01:29N 49°41' W 002°03'714.1
2018-Apr-22 01:01N 49°46' W 001°57'612.2
2018-Apr-22 00:30N 49°50' W 001°50'612.8
2018-Apr-22 00:00N 49°55' W 001°43'613.0
2018-Apr-21 23:31N 49°60' W 001°37'713.9
2018-Apr-21 23:01N 50°06' W 001°34'713.9
2018-Apr-21 22:31N 50°11' W 001°27'714.2
2018-Apr-21 22:00N 50°18' W 001°21'714.7
2018-Apr-21 21:30N 50°24' W 001°16'714.6
2018-Apr-21 21:00N 50°30' W 001°10'815.2
2018-Apr-21 20:30N 50°36' W 001°01'713.9
2018-Apr-21 20:00N 50°43' W 000°59'612.4
2018-Apr-21 19:30N 50°47' W 001°06'2 3.6
2018-Apr-21 19:00N 50°49' W 001°06'0 0.0
2018-Apr-21 18:27N 50°49' W 001°06'0 0.0
2018-Apr-21 18:00N 50°49' W 001°06'0 0.0
2018-Apr-21 17:30N 50°49' W 001°06'0 0.8
2018-Apr-21 17:00N 50°49' W 001°06'510.8
2018-Apr-21 16:31N 50°44' W 001°04'714.1
2018-Apr-21 16:01N 50°37' W 001°07'714.3
2018-Apr-21 15:30N 50°30' W 001°12'714.7
2018-Apr-21 15:00N 50°24' W 001°17'714.6
2018-Apr-21 14:30N 50°18' W 001°24'917.3
2018-Apr-21 14:00N 50°11' W 001°32'918.1
2018-Apr-21 13:31N 50°04' W 001°41'918.3
2018-Apr-21 13:01N 49°56' W 001°48'1019.1
2018-Apr-21 12:31N 49°49' W 001°57'1020.5
2018-Apr-21 12:00N 49°39' W 002°01'1121.0
2018-Apr-21 11:29N 49°28' W 001°58'42 6.9
2018-Apr-21 05:23N 48°46' W 002°10'913.0
2018-Apr-21 04:42N 48°53' W 002°19'1914.7
2018-Apr-21 03:23N 49°12' W 002°23'616.7
2018-Apr-21 03:00N 49°18' W 002°21'817.0
2018-Apr-21 02:30N 49°26' W 002°16'816.2
2018-Apr-21 02:00N 49°33' W 002°11'816.4
2018-Apr-21 01:31N 49°40' W 002°06'815.0
2018-Apr-21 01:00N 49°46' W 001°58'713.5
2018-Apr-21 00:30N 49°51' W 001°50'713.7
2018-Apr-21 00:00N 49°56' W 001°43'713.4
2018-Apr-20 23:31N 50°01' W 001°36'713.9
2018-Apr-20 23:00N 50°07' W 001°32'713.8
2018-Apr-20 22:30N 50°13' W 001°26'713.8
2018-Apr-20 22:01N 50°19' W 001°20'714.3
2018-Apr-20 21:31N 50°25' W 001°14'713.9
2018-Apr-20 21:00N 50°30' W 001°07'714.5
2018-Apr-20 20:31N 50°36' W 001°01'713.6
2018-Apr-20 20:00N 50°43' W 000°60'612.1
2018-Apr-20 19:31N 50°47' W 001°06'2 3.2
2018-Apr-20 19:01N 50°49' W 001°06'0 0.0
2018-Apr-20 18:28N 50°49' W 001°06'0 0.0
2018-Apr-20 17:58N 50°49' W 001°06'0 0.0
2018-Apr-20 17:29N 50°49' W 001°06'0 0.0
2018-Apr-20 16:58N 50°49' W 001°06'0 0.0
2018-Apr-20 16:28N 50°49' W 001°06'0 0.0
2018-Apr-20 15:58N 50°49' W 001°06'0 0.0
2018-Apr-20 15:29N 50°49' W 001°06'0 0.0
2018-Apr-20 15:00N 50°49' W 001°06'0 0.0
2018-Apr-20 14:30N 50°49' W 001°06'0 0.0
2018-Apr-20 14:00N 50°49' W 001°06'0 0.0
2018-Apr-20 13:30N 50°49' W 001°06'0 0.0
2018-Apr-20 13:00N 50°49' W 001°06'0 0.0
2018-Apr-20 12:30N 50°49' W 001°06'0 0.0
2018-Apr-20 12:00N 50°49' W 001°06'0 0.0
2018-Apr-20 11:30N 50°49' W 001°06'0 0.0
2018-Apr-20 11:00N 50°49' W 001°06'0 0.0
2018-Apr-20 10:30N 50°49' W 001°06'0 0.0
2018-Apr-20 10:00N 50°49' W 001°06'0 0.0
2018-Apr-20 09:30N 50°49' W 001°06'0 0.0
2018-Apr-20 09:00N 50°49' W 001°06'0 0.0
2018-Apr-20 08:29N 50°49' W 001°06'0 0.0
2018-Apr-20 07:59N 50°49' W 001°06'0 0.0
2018-Apr-20 07:26N 50°49' W 001°06'0 0.0
2018-Apr-20 06:59N 50°49' W 001°06'1 1.6
2018-Apr-20 06:31N 50°48' W 001°07'510.3
2018-Apr-20 06:00N 50°44' W 001°03'611.6
2018-Apr-20 05:30N 50°38' W 000°60'815.3
2018-Apr-20 05:00N 50°33' W 001°08'714.9
2018-Apr-20 04:30N 50°27' W 001°15'815.3
2018-Apr-20 04:00N 50°21' W 001°22'714.0
2018-Apr-20 03:30N 50°15' W 001°29'713.4
2018-Apr-20 03:00N 50°10' W 001°36'713.7
2018-Apr-20 02:30N 50°06' W 001°44'714.4
2018-Apr-20 02:01N 50°00' W 001°51'713.7
2018-Apr-20 01:30N 49°54' W 001°53'612.3
2018-Apr-20 01:00N 49°48' W 001°58'712.3
2018-Apr-20 00:25N 49°42' W 002°04'512.4
2018-Apr-20 00:00N 49°38' W 002°08'612.8
2018-Apr-19 23:30N 49°32' W 002°12'713.9
2018-Apr-19 23:00N 49°25' W 002°16'917.0
2018-Apr-19 22:30N 49°18' W 002°21'917.3
2018-Apr-19 22:00N 49°09' W 002°23'1216.1
2018-Apr-19 21:16N 48°57' W 002°22'511.4
2018-Apr-19 20:50N 48°52' W 002°20'810.5
2018-Apr-19 20:02N 48°46' W 002°12'010.4
2018-Apr-19 20:01N 48°46' W 002°11'510.2
2018-Apr-19 19:30N 48°42' W 002°06'4 9.2
2018-Apr-19 19:00N 48°38' W 002°02'0 0.2
2018-Apr-19 18:27N 48°38' W 002°02'0 0.0
2018-Apr-19 17:43N 48°38' W 002°02'0 0.0
2018-Apr-19 17:21N 48°38' W 002°02'0 0.0
2018-Apr-19 08:02N 48°38' W 002°02'0 0.0
2018-Apr-19 06:09N 48°38' W 002°02'0 2.7
2018-Apr-19 06:00N 48°38' W 002°02'814.4
2018-Apr-19 05:27N 48°45' W 002°09'2212.7
2018-Apr-19 03:44N 49°05' W 002°23'412.8
2018-Apr-19 03:27N 49°09' W 002°23'613.6
2018-Apr-19 03:00N 49°15' W 002°22'817.0
2018-Apr-19 02:30N 49°23' W 002°17'917.1
2018-Apr-19 02:00N 49°30' W 002°12'917.2
2018-Apr-19 01:30N 49°38' W 002°05'919.0
2018-Apr-19 01:00N 49°46' W 001°58'816.1
2018-Apr-19 00:30N 49°52' W 001°51'815.1
2018-Apr-19 00:00N 49°59' W 001°44'714.4
2018-Apr-18 23:30N 50°05' W 001°40'713.5
2018-Apr-18 23:00N 50°11' W 001°34'713.1
2018-Apr-18 22:30N 50°17' W 001°29'612.9
2018-Apr-18 22:00N 50°22' W 001°23'612.9
2018-Apr-18 21:30N 50°27' W 001°17'612.6
2018-Apr-18 21:01N 50°33' W 001°12'612.2
2018-Apr-18 20:30N 50°38' W 001°06'611.6
2018-Apr-18 20:00N 50°43' W 001°02'611.9
2018-Apr-18 19:30N 50°48' W 001°07'1 1.8
2018-Apr-18 18:59N 50°49' W 001°06'0 0.0
2018-Apr-18 18:28N 50°49' W 001°06'0 0.0
2018-Apr-18 17:58N 50°49' W 001°06'0 0.0
2018-Apr-18 17:29N 50°49' W 001°06'0 0.0
2018-Apr-18 16:59N 50°49' W 001°06'0 0.0
2018-Apr-18 16:28N 50°49' W 001°06'0 0.0
2018-Apr-18 16:00N 50°49' W 001°06'0 0.0
2018-Apr-18 15:30N 50°49' W 001°06'0 0.0
2018-Apr-18 15:00N 50°49' W 001°06'0 0.0
2018-Apr-18 14:30N 50°49' W 001°06'0 0.0
2018-Apr-18 14:00N 50°49' W 001°06'0 0.0
2018-Apr-18 13:30N 50°49' W 001°06'0 0.0
2018-Apr-18 13:00N 50°49' W 001°06'0 0.0
2018-Apr-18 12:30N 50°49' W 001°06'0 0.0
2018-Apr-18 12:00N 50°49' W 001°06'0 0.0
2018-Apr-18 11:30N 50°49' W 001°06'0 0.0
2018-Apr-18 11:00N 50°49' W 001°06'0 0.0
2018-Apr-18 10:30N 50°49' W 001°06'0 0.0
2018-Apr-18 10:00N 50°49' W 001°06'0 0.0
2018-Apr-18 09:30N 50°49' W 001°06'0 0.0
2018-Apr-18 09:00N 50°49' W 001°06'0 0.0
2018-Apr-18 08:30N 50°49' W 001°06'0 0.0
2018-Apr-18 08:00N 50°49' W 001°06'0 0.0
2018-Apr-18 07:30N 50°49' W 001°06'0 0.0
2018-Apr-18 06:58N 50°49' W 001°06'1 2.1
2018-Apr-18 06:30N 50°48' W 001°07'612.4
2018-Apr-18 06:01N 50°43' W 001°01'713.3
2018-Apr-18 05:30N 50°37' W 001°05'814.7
2018-Apr-18 04:59N 50°31' W 001°13'510.3
2018-Apr-18 04:30N 50°27' W 001°17'510.0
2018-Apr-18 04:00N 50°23' W 001°22'510.0
2018-Apr-18 03:30N 50°19' W 001°26'713.4
2018-Apr-18 03:01N 50°13' W 001°31'612.0
2018-Apr-18 02:31N 50°10' W 001°38'612.2
2018-Apr-18 02:00N 50°06' W 001°45'612.6
2018-Apr-18 01:30N 50°01' W 001°51'713.5
2018-Apr-18 01:00N 49°55' W 001°56'510.5
2018-Apr-18 00:31N 49°50' W 001°59'611.6
2018-Apr-18 00:01N 49°44' W 002°02'611.3
2018-Apr-17 23:30N 49°39' W 002°06'612.4
2018-Apr-17 23:00N 49°34' W 002°10'713.7
2018-Apr-17 22:30N 49°27' W 002°14'713.8
2018-Apr-17 22:00N 49°21' W 002°19'44 2.8
2018-Apr-17 06:03N 48°38' W 002°02'3 9.4
2018-Apr-17 05:45N 48°40' W 002°05'516.5
2018-Apr-17 05:28N 48°44' W 002°09'1017.7
2018-Apr-17 04:55N 48°52' W 002°18'813.6
2018-Apr-17 04:21N 48°59' W 002°21'616.2
2018-Apr-17 04:00N 49°05' W 002°22'813.4
2018-Apr-17 03:22N 49°13' W 002°22'412.5
2018-Apr-17 03:00N 49°18' W 002°22'611.5
2018-Apr-17 02:30N 49°23' W 002°20'713.1
2018-Apr-17 02:00N 49°28' W 002°13'713.4
2018-Apr-17 01:30N 49°34' W 002°10'814.6
2018-Apr-17 00:58N 49°42' W 002°06'816.6
2018-Apr-17 00:30N 49°48' W 001°60'816.7
2018-Apr-17 00:01N 49°55' W 001°53'815.5
2018-Apr-16 23:30N 50°02' W 001°47'714.7
2018-Apr-16 23:00N 50°07' W 001°39'714.2
2018-Apr-16 22:30N 50°13' W 001°32'713.6
2018-Apr-16 22:00N 50°19' W 001°26'713.4
2018-Apr-16 21:30N 50°24' W 001°21'713.0
2018-Apr-16 21:00N 50°30' W 001°15'612.3
2018-Apr-16 20:30N 50°35' W 001°09'612.5
2018-Apr-16 20:00N 50°40' W 001°04'611.2
2018-Apr-16 19:31N 50°46' W 001°05'3 6.1
2018-Apr-16 18:59N 50°49' W 001°06'  
Track history (hours):
 
Tides and Currents Weather Stations Pressure Air Temp Water Temp Dewpoint Dewpoint Depression Visibility Wind Speed Wind Dir Waves Ship Positions

Bretagne

Operator: Brittany Ferries

Last reported at 2018-Apr-26 18:33 UTC. Time now 2018-Apr-26 19:14 UTC.
Position N 48°40' W 002°05'.

Length 151 m; beam 27 m.

Type: Ship. MMSI: 227286000.

Date/timePositionNaut miles runAvg speedWind from/ knotsBaromVisibWave heightAir tempDewpointWater temp
2018-Apr-26 18:33N 48°40' W 002°05'3 0.9
2018-Apr-26 15:21N 48°38' W 002°02'32 2.8
2018-Apr-26 03:40N 49°08' W 002°22'415.3
2018-Apr-26 03:26N 49°11' W 002°21'615.0
2018-Apr-26 03:01N 49°18' W 002°20'713.7
2018-Apr-26 02:31N 49°24' W 002°17'713.7
2018-Apr-26 01:59N 49°30' W 002°11'510.8
2018-Apr-26 01:30N 49°35' W 002°08'6214.7
2018-Apr-25 21:17N 50°28' W 001°17'516.3
2018-Apr-25 21:01N 50°32' W 001°13'816.4
2018-Apr-25 20:30N 50°38' W 001°06'611.9
2018-Apr-25 20:00N 50°44' W 001°04'4 9.0
2018-Apr-25 19:31N 50°49' W 001°06'0 0.5
2018-Apr-25 18:58N 50°49' W 001°06'0 0.0
2018-Apr-25 18:28N 50°49' W 001°06'0 0.0
2018-Apr-25 17:58N 50°49' W 001°06'0 0.0
2018-Apr-25 17:28N 50°49' W 001°06'0 0.0
2018-Apr-25 16:58N 50°49' W 001°06'0 0.0
2018-Apr-25 16:28N 50°49' W 001°06'0 0.0
2018-Apr-25 15:58N 50°49' W 001°06'0 0.0
2018-Apr-25 15:29N 50°49' W 001°06'0 0.0
2018-Apr-25 15:00N 50°49' W 001°06'0 0.0
2018-Apr-25 14:28N 50°49' W 001°06'0 0.0
2018-Apr-25 13:58N 50°49' W 001°06'0 0.0
2018-Apr-25 13:28N 50°49' W 001°06'0 0.0
2018-Apr-25 12:58N 50°49' W 001°06'0 0.0
2018-Apr-25 12:28N 50°49' W 001°06'0 0.0
2018-Apr-25 11:58N 50°49' W 001°06'0 0.0
2018-Apr-25 11:28N 50°49' W 001°06'0 0.0
2018-Apr-25 10:58N 50°49' W 001°06'0 0.0
2018-Apr-25 10:28N 50°49' W 001°06'0 0.0
2018-Apr-25 09:58N 50°49' W 001°06'0 0.0
2018-Apr-25 09:28N 50°49' W 001°06'0 0.0
2018-Apr-25 08:58N 50°49' W 001°06'0 0.0
2018-Apr-25 08:28N 50°49' W 001°06'0 0.0
2018-Apr-25 07:58N 50°49' W 001°06'0 0.0
2018-Apr-25 07:28N 50°49' W 001°06'0 0.0
2018-Apr-25 06:59N 50°49' W 001°06'1 1.5
2018-Apr-25 06:30N 50°49' W 001°07'510.8
2018-Apr-25 06:00N 50°44' W 001°03'612.8
2018-Apr-25 05:30N 50°38' W 001°07'714.0
2018-Apr-25 05:00N 50°32' W 001°13'713.3
2018-Apr-25 04:28N 50°26' W 001°20'5612.7
2018-Apr-25 00:06N 49°39' W 002°05'112.4
2018-Apr-25 00:00N 49°38' W 002°06'611.5
2018-Apr-24 23:30N 49°32' W 002°10'611.2
2018-Apr-24 23:00N 49°27' W 002°12'611.0
2018-Apr-24 22:30N 49°22' W 002°17'611.0
2018-Apr-24 21:57N 49°17' W 002°21'2511.5
2018-Apr-24 19:47N 48°52' W 002°21'18 1.6
2018-Apr-24 08:00N 48°38' W 002°02'0 0.0
2018-Apr-24 06:48N 48°38' W 002°02'0 0.0
2018-Apr-24 06:18N 48°38' W 002°02'0 1.2
2018-Apr-24 05:57N 48°39' W 002°02'813.9
2018-Apr-24 05:21N 48°46' W 002°09'514.2
2018-Apr-24 04:59N 48°50' W 002°15'714.1
2018-Apr-24 04:30N 48°55' W 002°21'1014.7
2018-Apr-24 03:48N 49°05' W 002°23'514.7
2018-Apr-24 03:30N 49°09' W 002°23'714.5
2018-Apr-24 03:00N 49°17' W 002°23'714.7
2018-Apr-24 02:30N 49°23' W 002°17'714.5
2018-Apr-24 02:00N 49°30' W 002°12'814.3
2018-Apr-24 01:27N 49°37' W 002°07'812.7
2018-Apr-24 00:47N 49°45' W 002°02'412.9
2018-Apr-24 00:30N 49°48' W 001°60'714.4
2018-Apr-24 00:01N 49°54' W 001°54'815.4
2018-Apr-23 23:31N 50°01' W 001°48'714.0
2018-Apr-23 23:00N 50°06' W 001°42'714.0
2018-Apr-23 22:30N 50°12' W 001°35'714.7
2018-Apr-23 22:00N 50°18' W 001°29'815.4
2018-Apr-23 21:31N 50°24' W 001°22'815.6
2018-Apr-23 21:00N 50°31' W 001°15'816.2
2018-Apr-23 20:31N 50°37' W 001°07'713.6
2018-Apr-23 20:00N 50°43' W 001°03'511.0
2018-Apr-23 19:30N 50°48' W 001°07'1 1.6
2018-Apr-23 18:58N 50°49' W 001°06'0 0.0
2018-Apr-23 18:26N 50°49' W 001°06'0 0.0
2018-Apr-23 17:58N 50°49' W 001°06'0 0.0
2018-Apr-23 17:28N 50°49' W 001°06'0 0.9
2018-Apr-23 17:00N 50°49' W 001°06'510.3
2018-Apr-23 16:30N 50°44' W 001°04'713.4
2018-Apr-23 16:01N 50°37' W 001°07'816.5
2018-Apr-23 15:30N 50°31' W 001°14'713.1
2018-Apr-23 15:00N 50°25' W 001°20'713.2
2018-Apr-23 14:30N 50°20' W 001°26'815.0
2018-Apr-23 14:01N 50°14' W 001°32'816.8
2018-Apr-23 13:30N 50°07' W 001°40'918.4
2018-Apr-23 13:00N 49°60' W 001°49'918.8
2018-Apr-23 12:30N 49°51' W 001°56'1219.8
2018-Apr-23 11:55N 49°40' W 002°01'920.3
2018-Apr-23 11:28N 49°31' W 001°59'919.8
2018-Apr-23 11:00N 49°22' W 001°56'1618.2
2018-Apr-23 10:09N 49°07' W 001°52'2818.3
2018-Apr-23 08:37N 48°40' W 002°05'0 0.0
2018-Apr-23 04:30N 48°40' W 002°05'713.9
2018-Apr-23 03:58N 48°47' W 002°10'1213.5
2018-Apr-23 03:04N 48°56' W 002°21'815.4
2018-Apr-23 02:35N 49°04' W 002°23'215.8
2018-Apr-23 02:27N 49°06' W 002°23'915.8
2018-Apr-23 01:53N 49°15' W 002°23'615.8
2018-Apr-23 01:29N 49°21' W 002°20'816.7
2018-Apr-23 01:00N 49°28' W 002°14'916.9
2018-Apr-23 00:29N 49°36' W 002°09'915.1
2018-Apr-22 23:54N 49°44' W 002°03'615.1
2018-Apr-22 23:30N 49°49' W 001°59'816.8
2018-Apr-22 23:01N 49°56' W 001°52'917.7
2018-Apr-22 22:30N 50°03' W 001°44'917.9
2018-Apr-22 22:01N 50°10' W 001°34'1018.0
2018-Apr-22 21:26N 50°18' W 001°23'818.7
2018-Apr-22 21:00N 50°25' W 001°19'919.0
2018-Apr-22 20:30N 50°33' W 001°11'918.4
2018-Apr-22 20:00N 50°41' W 001°03'713.7
2018-Apr-22 19:30N 50°47' W 001°06'2 3.0
2018-Apr-22 18:57N 50°49' W 001°06'0 0.0
2018-Apr-22 18:27N 50°49' W 001°06'0 0.0
2018-Apr-22 17:57N 50°49' W 001°06'0 0.0
2018-Apr-22 17:27N 50°49' W 001°06'1 1.5
2018-Apr-22 17:00N 50°49' W 001°07'510.6
2018-Apr-22 16:30N 50°44' W 001°03'713.2
2018-Apr-22 16:00N 50°37' W 001°07'714.4
2018-Apr-22 15:30N 50°31' W 001°13'815.9
2018-Apr-22 15:00N 50°25' W 001°20'816.4
2018-Apr-22 14:30N 50°18' W 001°28'816.8
2018-Apr-22 14:00N 50°11' W 001°35'917.1
2018-Apr-22 13:30N 50°04' W 001°42'918.3
2018-Apr-22 13:00N 49°56' W 001°49'1020.4
2018-Apr-22 12:30N 49°48' W 001°58'1020.6
2018-Apr-22 12:00N 49°38' W 002°01'1019.7
2018-Apr-22 11:30N 49°28' W 001°58'5017.3
2018-Apr-22 08:38N 48°38' W 002°02'35 7.0
2018-Apr-22 03:37N 49°11' W 002°23'215.2
2018-Apr-22 03:29N 49°13' W 002°23'815.4
2018-Apr-22 03:00N 49°20' W 002°20'815.6
2018-Apr-22 02:30N 49°27' W 002°15'815.0
2018-Apr-22 02:00N 49°34' W 002°10'815.2
2018-Apr-22 01:29N 49°41' W 002°03'714.1
2018-Apr-22 01:01N 49°46' W 001°57'612.2
2018-Apr-22 00:30N 49°50' W 001°50'612.8
2018-Apr-22 00:00N 49°55' W 001°43'613.0
2018-Apr-21 23:31N 49°60' W 001°37'713.9
2018-Apr-21 23:01N 50°06' W 001°34'713.9
2018-Apr-21 22:31N 50°11' W 001°27'714.2
2018-Apr-21 22:00N 50°18' W 001°21'714.7
2018-Apr-21 21:30N 50°24' W 001°16'714.6
2018-Apr-21 21:00N 50°30' W 001°10'815.2
2018-Apr-21 20:30N 50°36' W 001°01'713.9
2018-Apr-21 20:00N 50°43' W 000°59'612.4
2018-Apr-21 19:30N 50°47' W 001°06'2 3.6
2018-Apr-21 19:00N 50°49' W 001°06'0 0.0
2018-Apr-21 18:27N 50°49' W 001°06'0 0.0
2018-Apr-21 18:00N 50°49' W 001°06'0 0.0
2018-Apr-21 17:30N 50°49' W 001°06'0 0.8
2018-Apr-21 17:00N 50°49' W 001°06'510.8
2018-Apr-21 16:31N 50°44' W 001°04'714.1
2018-Apr-21 16:01N 50°37' W 001°07'714.3
2018-Apr-21 15:30N 50°30' W 001°12'714.7
2018-Apr-21 15:00N 50°24' W 001°17'714.6
2018-Apr-21 14:30N 50°18' W 001°24'917.3
2018-Apr-21 14:00N 50°11' W 001°32'918.1
2018-Apr-21 13:31N 50°04' W 001°41'918.3
2018-Apr-21 13:01N 49°56' W 001°48'1019.1
2018-Apr-21 12:31N 49°49' W 001°57'1020.5
2018-Apr-21 12:00N 49°39' W 002°01'1121.0
2018-Apr-21 11:29N 49°28' W 001°58'42 6.9
2018-Apr-21 05:23N 48°46' W 002°10'913.0
2018-Apr-21 04:42N 48°53' W 002°19'1914.7
2018-Apr-21 03:23N 49°12' W 002°23'616.7
2018-Apr-21 03:00N 49°18' W 002°21'817.0
2018-Apr-21 02:30N 49°26' W 002°16'816.2
2018-Apr-21 02:00N 49°33' W 002°11'816.4
2018-Apr-21 01:31N 49°40' W 002°06'815.0
2018-Apr-21 01:00N 49°46' W 001°58'713.5
2018-Apr-21 00:30N 49°51' W 001°50'713.7
2018-Apr-21 00:00N 49°56' W 001°43'713.4
2018-Apr-20 23:31N 50°01' W 001°36'713.9
2018-Apr-20 23:00N 50°07' W 001°32'713.8
2018-Apr-20 22:30N 50°13' W 001°26'713.8
2018-Apr-20 22:01N 50°19' W 001°20'714.3
2018-Apr-20 21:31N 50°25' W 001°14'713.9
2018-Apr-20 21:00N 50°30' W 001°07'714.5
2018-Apr-20 20:31N 50°36' W 001°01'713.6
2018-Apr-20 20:00N 50°43' W 000°60'612.1
2018-Apr-20 19:31N 50°47' W 001°06'2 3.2
2018-Apr-20 19:01N 50°49' W 001°06'0 0.0
2018-Apr-20 18:28N 50°49' W 001°06'0 0.0
2018-Apr-20 17:58N 50°49' W 001°06'0 0.0
2018-Apr-20 17:29N 50°49' W 001°06'0 0.0
2018-Apr-20 16:58N 50°49' W 001°06'0 0.0
2018-Apr-20 16:28N 50°49' W 001°06'0 0.0
2018-Apr-20 15:58N 50°49' W 001°06'0 0.0
2018-Apr-20 15:29N 50°49' W 001°06'0 0.0
2018-Apr-20 15:00N 50°49' W 001°06'0 0.0
2018-Apr-20 14:30N 50°49' W 001°06'0 0.0
2018-Apr-20 14:00N 50°49' W 001°06'0 0.0
2018-Apr-20 13:30N 50°49' W 001°06'0 0.0
2018-Apr-20 13:00N 50°49' W 001°06'0 0.0
2018-Apr-20 12:30N 50°49' W 001°06'0 0.0
2018-Apr-20 12:00N 50°49' W 001°06'0 0.0
2018-Apr-20 11:30N 50°49' W 001°06'0 0.0
2018-Apr-20 11:00N 50°49' W 001°06'0 0.0
2018-Apr-20 10:30N 50°49' W 001°06'0 0.0
2018-Apr-20 10:00N 50°49' W 001°06'0 0.0
2018-Apr-20 09:30N 50°49' W 001°06'0 0.0
2018-Apr-20 09:00N 50°49' W 001°06'0 0.0
2018-Apr-20 08:29N 50°49' W 001°06'0 0.0
2018-Apr-20 07:59N 50°49' W 001°06'0 0.0
2018-Apr-20 07:26N 50°49' W 001°06'0 0.0
2018-Apr-20 06:59N 50°49' W 001°06'1 1.6
2018-Apr-20 06:31N 50°48' W 001°07'510.3
2018-Apr-20 06:00N 50°44' W 001°03'611.6
2018-Apr-20 05:30N 50°38' W 000°60'815.3
2018-Apr-20 05:00N 50°33' W 001°08'714.9
2018-Apr-20 04:30N 50°27' W 001°15'815.3
2018-Apr-20 04:00N 50°21' W 001°22'714.0
2018-Apr-20 03:30N 50°15' W 001°29'713.4
2018-Apr-20 03:00N 50°10' W 001°36'713.7
2018-Apr-20 02:30N 50°06' W 001°44'714.4
2018-Apr-20 02:01N 50°00' W 001°51'713.7
2018-Apr-20 01:30N 49°54' W 001°53'612.3
2018-Apr-20 01:00N 49°48' W 001°58'712.3
2018-Apr-20 00:25N 49°42' W 002°04'512.4
2018-Apr-20 00:00N 49°38' W 002°08'612.8
2018-Apr-19 23:30N 49°32' W 002°12'713.9
2018-Apr-19 23:00N 49°25' W 002°16'917.0
2018-Apr-19 22:30N 49°18' W 002°21'917.3
2018-Apr-19 22:00N 49°09' W 002°23'1216.1
2018-Apr-19 21:16N 48°57' W 002°22'511.4
2018-Apr-19 20:50N 48°52' W 002°20'810.5
2018-Apr-19 20:02N 48°46' W 002°12'010.4
2018-Apr-19 20:01N 48°46' W 002°11'510.2
2018-Apr-19 19:30N 48°42' W 002°06'4 9.2
2018-Apr-19 19:00N 48°38' W 002°02'0 0.2
2018-Apr-19 18:27N 48°38' W 002°02'0 0.0
2018-Apr-19 17:43N 48°38' W 002°02'0 0.0
2018-Apr-19 17:21N 48°38' W 002°02'0 0.0
2018-Apr-19 08:02N 48°38' W 002°02'0 0.0
2018-Apr-19 06:09N 48°38' W 002°02'0 2.7
2018-Apr-19 06:00N 48°38' W 002°02'814.4
2018-Apr-19 05:27N 48°45' W 002°09'2212.7
2018-Apr-19 03:44N 49°05' W 002°23'412.8
2018-Apr-19 03:27N 49°09' W 002°23'613.6
2018-Apr-19 03:00N 49°15' W 002°22'817.0
2018-Apr-19 02:30N 49°23' W 002°17'917.1
2018-Apr-19 02:00N 49°30' W 002°12'917.2
2018-Apr-19 01:30N 49°38' W 002°05'919.0
2018-Apr-19 01:00N 49°46' W 001°58'816.1
2018-Apr-19 00:30N 49°52' W 001°51'815.1
2018-Apr-19 00:00N 49°59' W 001°44'714.4
2018-Apr-18 23:30N 50°05' W 001°40'713.5
2018-Apr-18 23:00N 50°11' W 001°34'713.1
2018-Apr-18 22:30N 50°17' W 001°29'612.9
2018-Apr-18 22:00N 50°22' W 001°23'612.9
2018-Apr-18 21:30N 50°27' W 001°17'612.6
2018-Apr-18 21:01N 50°33' W 001°12'612.2
2018-Apr-18 20:30N 50°38' W 001°06'611.6
2018-Apr-18 20:00N 50°43' W 001°02'611.9
2018-Apr-18 19:30N 50°48' W 001°07'1 1.8
2018-Apr-18 18:59N 50°49' W 001°06'0 0.0
2018-Apr-18 18:28N 50°49' W 001°06'0 0.0
2018-Apr-18 17:58N 50°49' W 001°06'0 0.0
2018-Apr-18 17:29N 50°49' W 001°06'0 0.0
2018-Apr-18 16:59N 50°49' W 001°06'0 0.0
2018-Apr-18 16:28N 50°49' W 001°06'0 0.0
2018-Apr-18 16:00N 50°49' W 001°06'0 0.0
2018-Apr-18 15:30N 50°49' W 001°06'0 0.0
2018-Apr-18 15:00N 50°49' W 001°06'0 0.0
2018-Apr-18 14:30N 50°49' W 001°06'0 0.0
2018-Apr-18 14:00N 50°49' W 001°06'0 0.0
2018-Apr-18 13:30N 50°49' W 001°06'0 0.0
2018-Apr-18 13:00N 50°49' W 001°06'0 0.0
2018-Apr-18 12:30N 50°49' W 001°06'0 0.0
2018-Apr-18 12:00N 50°49' W 001°06'0 0.0
2018-Apr-18 11:30N 50°49' W 001°06'0 0.0
2018-Apr-18 11:00N 50°49' W 001°06'0 0.0
2018-Apr-18 10:30N 50°49' W 001°06'0 0.0
2018-Apr-18 10:00N 50°49' W 001°06'0 0.0
2018-Apr-18 09:30N 50°49' W 001°06'0 0.0
2018-Apr-18 09:00N 50°49' W 001°06'0 0.0
2018-Apr-18 08:30N 50°49' W 001°06'0 0.0
2018-Apr-18 08:00N 50°49' W 001°06'0 0.0
2018-Apr-18 07:30N 50°49' W 001°06'0 0.0
2018-Apr-18 06:58N 50°49' W 001°06'1 2.1
2018-Apr-18 06:30N 50°48' W 001°07'612.4
2018-Apr-18 06:01N 50°43' W 001°01'713.3
2018-Apr-18 05:30N 50°37' W 001°05'814.7
2018-Apr-18 04:59N 50°31' W 001°13'510.3
2018-Apr-18 04:30N 50°27' W 001°17'510.0
2018-Apr-18 04:00N 50°23' W 001°22'510.0
2018-Apr-18 03:30N 50°19' W 001°26'713.4
2018-Apr-18 03:01N 50°13' W 001°31'612.0
2018-Apr-18 02:31N 50°10' W 001°38'612.2
2018-Apr-18 02:00N 50°06' W 001°45'612.6
2018-Apr-18 01:30N 50°01' W 001°51'713.5
2018-Apr-18 01:00N 49°55' W 001°56'510.5
2018-Apr-18 00:31N 49°50' W 001°59'611.6
2018-Apr-18 00:01N 49°44' W 002°02'611.3
2018-Apr-17 23:30N 49°39' W 002°06'612.4
2018-Apr-17 23:00N 49°34' W 002°10'713.7
2018-Apr-17 22:30N 49°27' W 002°14'713.8
2018-Apr-17 22:00N 49°21' W 002°19'44 2.8
2018-Apr-17 06:03N 48°38' W 002°02'3 9.4
2018-Apr-17 05:45N 48°40' W 002°05'516.5
2018-Apr-17 05:28N 48°44' W 002°09'1017.7
2018-Apr-17 04:55N 48°52' W 002°18'813.6
2018-Apr-17 04:21N 48°59' W 002°21'616.2
2018-Apr-17 04:00N 49°05' W 002°22'813.4
2018-Apr-17 03:22N 49°13' W 002°22'412.5
2018-Apr-17 03:00N 49°18' W 002°22'611.5
2018-Apr-17 02:30N 49°23' W 002°20'713.1
2018-Apr-17 02:00N 49°28' W 002°13'713.4
2018-Apr-17 01:30N 49°34' W 002°10'814.6
2018-Apr-17 00:58N 49°42' W 002°06'816.6
2018-Apr-17 00:30N 49°48' W 001°60'816.7
2018-Apr-17 00:01N 49°55' W 001°53'815.5
2018-Apr-16 23:30N 50°02' W 001°47'714.7
2018-Apr-16 23:00N 50°07' W 001°39'714.2
2018-Apr-16 22:30N 50°13' W 001°32'713.6
2018-Apr-16 22:00N 50°19' W 001°26'713.4
2018-Apr-16 21:30N 50°24' W 001°21'713.0
2018-Apr-16 21:00N 50°30' W 001°15'612.3
2018-Apr-16 20:30N 50°35' W 001°09'612.5
2018-Apr-16 20:00N 50°40' W 001°04'611.2
2018-Apr-16 19:31N 50°46' W 001°05'3 6.1
2018-Apr-16 18:59N 50°49' W 001°06'  

Dump ship's entire track history